Pocatello, Idaho
Current Conditions -  °F | °C
As of 6:53 PM on Thursday 20 Nov 2014 (Local Time) from KPIH Reporting Station
Clear Clear  
Wind Chill: 23°   Ceiling: Unl
Heat Index: 29°   Visibility: 9mi
Dew Point: 27°   Wind: 6mph
Humidity: 92%   Direction: 180°S
Pressure: 30.05"   Gusts: NA
Location:  42.87°N, 112.45°W
Report Text: KPIH 210153Z 18005KT 9SM CLR M02/M03 A3005 RMK AO2 SLP209 T10171028
Loading
Personal Weather Stations






























Interactive Weather Map New forecast layout! Learn more

10-Day Weather Forecast

Advertisements
Track Severe Weather on mobile